Glendale/Luke AFB, Arizona
Current Conditions -  °F | °C
As of 1:58 PM on Wednesday 26 Nov 2014 (Local Time) from KLUF Reporting Station
Clear Clear  
Wind Chill: 69°   Ceiling: Unl
Heat Index: 69°   Visibility: 10mi
Dew Point: 18°   Wind: 0mph
Humidity: 14%   Direction: NA
Pressure: 30.2"   Gusts: NA
Location:  33.53°N, 112.38°W
Report Text: KLUF 262058Z AUTO 00000KT 10SM CLR 20/M08 A3020 RMK AO2 SLP224 T02041078 57035 $
Loading
Personal Weather Stations






























Interactive Weather Map New forecast layout! Learn more

10-Day Weather Forecast

Advertisements
Track Severe Weather on mobile